PWSweather.com
Personal Weather Stations
Station Observations
270882
Flassian, LimouxFR 11300

FlassianLimouxFR 11300

Lat: 43.071798, Lon: 2.217292

Elevation: 165

Station Type: Oregon WMR 200

http://www.meteolimoux.fr

High Low Average
Temperature 78.8°F26.0°C 50.0°F10.0°C 62.0°F16.7°C
Dew Point 54.9°F12.7°C 44.8°F7.1°C 50.1°F10.1°C
Winds 4.3 mph 6.9 kmh Calm Calm 1.0 mph ESE1.6 kmh ESE
Wind Gusts 8.3 mph13.4 kmh -- 2.0 mph3.2 kmh
Humidity 87% 40% 68%
Pressure 30.34 in1027.4 mb 30.25 in1024.4 mb -
Precipitation 0.00 in0.0 mm - -
Hour Temp Dew Point Humidity Winds Wind Gusts Pressure Precip Precip Rate Daily Precip Total
12:02 AM 53.6°F12.0°C 47.8°F8.8°C 81% Calm Calm -- 30.28 in1025.4 mb - 0.00 in0.0 mm 0.00 in0.0 mm
12:07 AM 53.6°F12.0°C 47.8°F8.8°C 81% Calm Calm -- 30.28 in1025.4 mb - 0.00 in0.0 mm 0.00 in0.0 mm
12:12 AM 53.4°F11.9°C 47.7°F8.7°C 81% Calm Calm -- 30.28 in1025.4 mb - 0.00 in0.0 mm 0.00 in0.0 mm
12:17 AM 53.2°F11.8°C 47.5°F8.6°C 81% Calm Calm -- 30.28 in1025.4 mb - 0.00 in0.0 mm 0.00 in0.0 mm
12:22 AM 53.2°F11.8°C 47.5°F8.6°C 81% Calm Calm -- 30.28 in1025.4 mb - 0.00 in0.0 mm 0.00 in0.0 mm
12:27 AM 53.1°F11.7°C 47.5°F8.6°C 81% Calm Calm -- 30.28 in1025.4 mb - 0.00 in0.0 mm 0.00 in0.0 mm
12:32 AM 52.9°F11.6°C 47.3°F8.5°C 81% Calm Calm -- 30.28 in1025.4 mb - 0.00 in0.0 mm 0.00 in0.0 mm
12:37 AM 52.7°F11.5°C 47.1°F8.4°C 81% Calm Calm -- 30.28 in1025.4 mb - 0.00 in0.0 mm 0.00 in0.0 mm
12:42 AM 52.7°F11.5°C 47.1°F8.4°C 81% Calm Calm -- 30.28 in1025.4 mb - 0.00 in0.0 mm 0.00 in0.0 mm
12:47 AM 52.5°F11.4°C 46.9°F8.3°C 81% Calm Calm -- 30.28 in1025.4 mb - 0.00 in0.0 mm 0.00 in0.0 mm
12:52 AM 52.3°F11.3°C 46.8°F8.2°C 81% Calm Calm -- 30.28 in1025.4 mb - 0.00 in0.0 mm 0.00 in0.0 mm
12:57 AM 52.3°F11.3°C 46.8°F8.2°C 81% Calm Calm -- 30.28 in1025.4 mb - 0.00 in0.0 mm 0.00 in0.0 mm
01:02 AM 52.3°F11.3°C 46.8°F8.2°C 81% Calm Calm -- 30.28 in1025.4 mb - 0.00 in0.0 mm 0.00 in0.0 mm
01:07 AM 52.2°F11.2°C 46.6°F8.1°C 81% Calm Calm -- 30.28 in1025.4 mb - 0.00 in0.0 mm 0.00 in0.0 mm
01:12 AM 52.0°F11.1°C 46.4°F8.0°C 81% Calm Calm -- 30.28 in1025.4 mb - 0.00 in0.0 mm 0.00 in0.0 mm
01:17 AM 51.8°F11.0°C 46.2°F7.9°C 81% Calm Calm -- 30.28 in1025.4 mb - 0.00 in0.0 mm 0.00 in0.0 mm
01:22 AM 51.4°F10.8°C 45.9°F7.7°C 81% Calm Calm -- 30.28 in1025.4 mb - 0.00 in0.0 mm 0.00 in0.0 mm
01:27 AM 51.4°F10.8°C 45.9°F7.7°C 81% Calm Calm -- 30.31 in1026.4 mb - 0.00 in0.0 mm 0.00 in0.0 mm
01:32 AM 51.4°F10.8°C 45.9°F7.7°C 81% Calm Calm -- 30.31 in1026.4 mb - 0.00 in0.0 mm 0.00 in0.0 mm
01:37 AM 51.3°F10.7°C 45.7°F7.6°C 81% Calm Calm -- 30.31 in1026.4 mb - 0.00 in0.0 mm 0.00 in0.0 mm
01:42 AM 51.1°F10.6°C 45.5°F7.5°C 81% Calm Calm -- 30.25 in1024.4 mb - 0.00 in0.0 mm 0.00 in0.0 mm
01:47 AM 51.1°F10.6°C 45.9°F7.7°C 82% Calm Calm -- 30.25 in1024.4 mb - 0.00 in0.0 mm 0.00 in0.0 mm
01:52 AM 51.1°F10.6°C 45.9°F7.7°C 82% Calm Calm -- 30.25 in1024.4 mb - 0.00 in0.0 mm 0.00 in0.0 mm
01:57 AM 51.1°F10.6°C 45.9°F7.7°C 82% Calm Calm -- 30.28 in1025.4 mb - 0.00 in0.0 mm 0.00 in0.0 mm
02:02 AM 50.7°F10.4°C 45.5°F7.5°C 82% Calm Calm -- 30.28 in1025.4 mb - 0.00 in0.0 mm 0.00 in0.0 mm
02:07 AM 50.7°F10.4°C 45.5°F7.5°C 82% Calm Calm -- 30.28 in1025.4 mb - 0.00 in0.0 mm 0.00 in0.0 mm
02:12 AM 50.5°F10.3°C 45.3°F7.4°C 82% Calm Calm -- 30.25 in1024.4 mb - 0.00 in0.0 mm 0.00 in0.0 mm
02:17 AM 50.4°F10.2°C 45.1°F7.3°C 82% Calm Calm -- 30.25 in1024.4 mb - 0.00 in0.0 mm 0.00 in0.0 mm
02:22 AM 50.4°F10.2°C 45.1°F7.3°C 82% Calm Calm -- 30.25 in1024.4 mb - 0.00 in0.0 mm 0.00 in0.0 mm
02:27 AM 50.2°F10.1°C 45.0°F7.2°C 82% Calm Calm -- 30.28 in1025.4 mb - 0.00 in0.0 mm 0.00 in0.0 mm
02:32 AM 50.0°F10.0°C 44.8°F7.1°C 82% Calm Calm -- 30.28 in1025.4 mb - 0.00 in0.0 mm 0.00 in0.0 mm
02:37 AM 50.0°F10.0°C 44.8°F7.1°C 82% Calm Calm -- 30.28 in1025.4 mb - 0.00 in0.0 mm 0.00 in0.0 mm
02:42 AM 50.2°F10.1°C 45.1°F7.3°C 83% Calm Calm -- 30.25 in1024.4 mb - 0.00 in0.0 mm 0.00 in0.0 mm
02:47 AM 50.5°F10.3°C 45.5°F7.5°C 83% Calm Calm -- 30.25 in1024.4 mb - 0.00 in0.0 mm 0.00 in0.0 mm
02:52 AM 51.1°F10.6°C 46.8°F8.2°C 85% Calm Calm -- 30.25 in1024.4 mb - 0.00 in0.0 mm 0.00 in0.0 mm
02:57 AM 51.4°F10.8°C 47.1°F8.4°C 85% Calm Calm -- 30.28 in1025.4 mb - 0.00 in0.0 mm 0.00 in0.0 mm
03:02 AM 51.6°F10.9°C 47.3°F8.5°C 85% Calm Calm -- 30.28 in1025.4 mb - 0.00 in0.0 mm 0.00 in0.0 mm
03:07 AM 51.8°F11.0°C 47.8°F8.8°C 86% Calm Calm -- 30.28 in1025.4 mb - 0.00 in0.0 mm 0.00 in0.0 mm
03:12 AM 51.8°F11.0°C 47.8°F8.8°C 86% Calm Calm -- 30.25 in1024.4 mb - 0.00 in0.0 mm 0.00 in0.0 mm
03:17 AM 51.6°F10.9°C 47.3°F8.5°C 85% Calm Calm -- 30.25 in1024.4 mb - 0.00 in0.0 mm 0.00 in0.0 mm
03:22 AM 51.6°F10.9°C 47.3°F8.5°C 85% Calm Calm -- 30.25 in1024.4 mb - 0.00 in0.0 mm 0.00 in0.0 mm
03:27 AM 51.4°F10.8°C 47.1°F8.4°C 85% Calm Calm -- 30.31 in1026.4 mb - 0.00 in0.0 mm 0.00 in0.0 mm
03:32 AM 51.3°F10.7°C 46.9°F8.3°C 85% Calm Calm -- 30.31 in1026.4 mb - 0.00 in0.0 mm 0.00 in0.0 mm
03:37 AM 51.3°F10.7°C 46.6°F8.1°C 84% Calm Calm -- 30.31 in1026.4 mb - 0.00 in0.0 mm 0.00 in0.0 mm
03:42 AM 51.3°F10.7°C 46.9°F8.3°C 85% Calm Calm -- 30.28 in1025.4 mb - 0.00 in0.0 mm 0.00 in0.0 mm
03:47 AM 51.3°F10.7°C 46.6°F8.1°C 84% Calm Calm -- 30.28 in1025.4 mb - 0.00 in0.0 mm 0.00 in0.0 mm
03:52 AM 51.1°F10.6°C 46.4°F8.0°C 84% Calm Calm -- 30.28 in1025.4 mb - 0.00 in0.0 mm 0.00 in0.0 mm
03:57 AM 51.1°F10.6°C 46.4°F8.0°C 84% Calm Calm -- 30.28 in1025.4 mb - 0.00 in0.0 mm 0.00 in0.0 mm
04:02 AM 50.7°F10.4°C 46.0°F7.8°C 84% Calm Calm -- 30.28 in1025.4 mb - 0.00 in0.0 mm 0.00 in0.0 mm
04:07 AM 50.5°F10.3°C 45.9°F7.7°C 84% Calm Calm -- 30.28 in1025.4 mb - 0.00 in0.0 mm 0.00 in0.0 mm
04:12 AM 50.4°F10.2°C 45.7°F7.6°C 84% Calm Calm -- 30.25 in1024.4 mb - 0.00 in0.0 mm 0.00 in0.0 mm
04:17 AM 50.2°F10.1°C 45.5°F7.5°C 84% Calm Calm -- 30.25 in1024.4 mb - 0.00 in0.0 mm 0.00 in0.0 mm
04:22 AM 50.0°F10.0°C 45.3°F7.4°C 84% Calm Calm -- 30.25 in1024.4 mb - 0.00 in0.0 mm 0.00 in0.0 mm
04:27 AM 50.0°F10.0°C 45.3°F7.4°C 84% Calm Calm -- 30.28 in1025.4 mb - 0.00 in0.0 mm 0.00 in0.0 mm
04:32 AM 50.0°F10.0°C 45.3°F7.4°C 84% Calm Calm -- 30.28 in1025.4 mb - 0.00 in0.0 mm 0.00 in0.0 mm
04:37 AM 50.0°F10.0°C 45.3°F7.4°C 84% Calm Calm -- 30.28 in1025.4 mb - 0.00 in0.0 mm 0.00 in0.0 mm
04:42 AM 50.4°F10.2°C 45.7°F7.6°C 84% Calm Calm -- 30.28 in1025.4 mb - 0.00 in0.0 mm 0.00 in0.0 mm
04:47 AM 50.5°F10.3°C 46.2°F7.9°C 85% Calm Calm -- 30.28 in1025.4 mb - 0.00 in0.0 mm 0.00 in0.0 mm
04:52 AM 50.9°F10.5°C 46.6°F8.1°C 85% Calm Calm -- 30.28 in1025.4 mb - 0.00 in0.0 mm 0.00 in0.0 mm
04:57 AM 51.3°F10.7°C 47.3°F8.5°C 86% Calm Calm -- 30.28 in1025.4 mb - 0.00 in0.0 mm 0.00 in0.0 mm
05:02 AM 51.4°F10.8°C 47.5°F8.6°C 86% Calm Calm -- 30.28 in1025.4 mb - 0.00 in0.0 mm 0.00 in0.0 mm
05:07 AM 51.6°F10.9°C 47.7°F8.7°C 86% Calm Calm -- 30.28 in1025.4 mb - 0.00 in0.0 mm 0.00 in0.0 mm
05:12 AM 51.8°F11.0°C 47.8°F8.8°C 86% Calm Calm -- 30.28 in1025.4 mb - 0.00 in0.0 mm 0.00 in0.0 mm
05:17 AM 52.0°F11.1°C 47.8°F8.8°C 86% Calm Calm -- 30.28 in1025.4 mb - 0.00 in0.0 mm 0.00 in0.0 mm
05:22 AM 52.2°F11.2°C 48.0°F8.9°C 86% Calm Calm -- 30.28 in1025.4 mb - 0.00 in0.0 mm 0.00 in0.0 mm
05:27 AM 52.3°F11.3°C 48.6°F9.2°C 87% Calm Calm -- 30.31 in1026.4 mb - 0.00 in0.0 mm 0.00 in0.0 mm
05:32 AM 52.5°F11.4°C 48.7°F9.3°C 87% Calm Calm -- 30.31 in1026.4 mb - 0.00 in0.0 mm 0.00 in0.0 mm
05:37 AM 52.7°F11.5°C 48.9°F9.4°C 87% Calm Calm -- 30.31 in1026.4 mb - 0.00 in0.0 mm 0.00 in0.0 mm
05:42 AM 52.9°F11.6°C 49.1°F9.5°C 87% Calm Calm -- 30.28 in1025.4 mb - 0.00 in0.0 mm 0.00 in0.0 mm
05:47 AM 52.9°F11.6°C 49.1°F9.5°C 87% Calm Calm -- 30.28 in1025.4 mb - 0.00 in0.0 mm 0.00 in0.0 mm
05:52 AM 53.1°F11.7°C 48.9°F9.4°C 86% Calm Calm -- 30.28 in1025.4 mb - 0.00 in0.0 mm 0.00 in0.0 mm
05:57 AM 53.2°F11.8°C 49.1°F9.5°C 86% Calm Calm -- 30.31 in1026.4 mb - 0.00 in0.0 mm 0.00 in0.0 mm
06:02 AM 53.2°F11.8°C 49.1°F9.5°C 86% Calm Calm -- 30.31 in1026.4 mb - 0.00 in0.0 mm 0.00 in0.0 mm
06:07 AM 53.4°F11.9°C 49.3°F9.6°C 86% Calm Calm -- 30.31 in1026.4 mb - 0.00 in0.0 mm 0.00 in0.0 mm
06:12 AM 53.4°F11.9°C 49.3°F9.6°C 86% Calm Calm -- 30.31 in1026.4 mb - 0.00 in0.0 mm 0.00 in0.0 mm
06:17 AM 53.6°F12.0°C 49.5°F9.7°C 86% Calm Calm -- 30.31 in1026.4 mb - 0.00 in0.0 mm 0.00 in0.0 mm
06:22 AM 53.8°F12.1°C 49.6°F9.8°C 86% Calm Calm -- 30.31 in1026.4 mb - 0.00 in0.0 mm 0.00 in0.0 mm
06:27 AM 53.8°F12.1°C 49.6°F9.8°C 86% 2.0 mph SW3.2 kmh SW 5.1 mph8.2 kmh 30.31 in1026.4 mb - 0.00 in0.0 mm 0.00 in0.0 mm
06:32 AM 54.0°F12.2°C 49.8°F9.9°C 86% 2.2 mph SW3.5 kmh SW 4.5 mph7.2 kmh 30.31 in1026.4 mb - 0.00 in0.0 mm 0.00 in0.0 mm
06:37 AM 54.1°F12.3°C 50.0°F10.0°C 86% Calm Calm -- 30.31 in1026.4 mb - 0.00 in0.0 mm 0.00 in0.0 mm
06:42 AM 54.1°F12.3°C 50.0°F10.0°C 86% Calm Calm -- 30.31 in1026.4 mb - 0.00 in0.0 mm 0.00 in0.0 mm
06:47 AM 54.3°F12.4°C 50.0°F10.0°C 85% Calm Calm -- 30.31 in1026.4 mb - 0.00 in0.0 mm 0.00 in0.0 mm
06:52 AM 54.5°F12.5°C 50.0°F10.0°C 85% 0.7 mph S1.1 kmh S 3.4 mph5.5 kmh 30.31 in1026.4 mb - 0.00 in0.0 mm 0.00 in0.0 mm
06:57 AM 54.7°F12.6°C 50.2°F10.1°C 85% 2.0 mph S3.2 kmh S 3.8 mph6.1 kmh 30.31 in1026.4 mb - 0.00 in0.0 mm 0.00 in0.0 mm
07:02 AM 54.7°F12.6°C 50.2°F10.1°C 85% 2.5 mph S4.0 kmh S 4.0 mph6.4 kmh 30.31 in1026.4 mb - 0.00 in0.0 mm 0.00 in0.0 mm
07:07 AM 54.9°F12.7°C 50.4°F10.2°C 85% 2.7 mph SSW4.3 kmh SSW 4.9 mph7.9 kmh 30.31 in1026.4 mb - 0.00 in0.0 mm 0.00 in0.0 mm
07:12 AM 54.9°F12.7°C 50.4°F10.2°C 85% 3.1 mph S5.0 kmh S 5.4 mph8.7 kmh 30.31 in1026.4 mb - 0.00 in0.0 mm 0.00 in0.0 mm
07:17 AM 55.0°F12.8°C 50.5°F10.3°C 85% 2.7 mph SSW4.3 kmh SSW 4.5 mph7.2 kmh 30.31 in1026.4 mb - 0.00 in0.0 mm 0.00 in0.0 mm
07:22 AM 55.0°F12.8°C 50.5°F10.3°C 85% 2.5 mph S4.0 kmh S 4.3 mph6.9 kmh 30.31 in1026.4 mb - 0.00 in0.0 mm 0.00 in0.0 mm
07:27 AM 55.2°F12.9°C 50.7°F10.4°C 85% 0.2 mph S0.3 kmh S 2.7 mph4.3 kmh 30.31 in1026.4 mb - 0.00 in0.0 mm 0.00 in0.0 mm
07:32 AM 55.4°F13.0°C 50.9°F10.5°C 85% 2.5 mph S4.0 kmh S 4.0 mph6.4 kmh 30.31 in1026.4 mb - 0.00 in0.0 mm 0.00 in0.0 mm
07:37 AM 55.4°F13.0°C 50.7°F10.4°C 84% 2.7 mph S4.3 kmh S 2.7 mph4.3 kmh 30.31 in1026.4 mb - 0.00 in0.0 mm 0.00 in0.0 mm
07:42 AM 55.4°F13.0°C 50.7°F10.4°C 84% 2.0 mph SW3.2 kmh SW 4.5 mph7.2 kmh 30.34 in1027.4 mb - 0.00 in0.0 mm 0.00 in0.0 mm
07:47 AM 55.2°F12.9°C 50.5°F10.3°C 84% 3.1 mph SSW5.0 kmh SSW 4.9 mph7.9 kmh 30.34 in1027.4 mb - 0.00 in0.0 mm 0.00 in0.0 mm
07:52 AM 55.2°F12.9°C 50.5°F10.3°C 84% 3.4 mph SW5.5 kmh SW 5.1 mph8.2 kmh 30.34 in1027.4 mb - 0.00 in0.0 mm 0.00 in0.0 mm
07:57 AM 55.2°F12.9°C 50.2°F10.1°C 83% 3.6 mph SSW5.8 kmh SSW 3.6 mph5.8 kmh 30.31 in1026.4 mb - 0.00 in0.0 mm 0.00 in0.0 mm
08:02 AM 55.2°F12.9°C 50.2°F10.1°C 83% 4.3 mph SW6.9 kmh SW 5.8 mph9.3 kmh 30.31 in1026.4 mb - 0.00 in0.0 mm 0.00 in0.0 mm
08:07 AM 55.2°F12.9°C 50.2°F10.1°C 83% 3.1 mph S5.0 kmh S 5.1 mph8.2 kmh 30.31 in1026.4 mb - 0.00 in0.0 mm 0.00 in0.0 mm
08:12 AM 55.2°F12.9°C 50.2°F10.1°C 83% 2.2 mph SW3.5 kmh SW 4.9 mph7.9 kmh 30.34 in1027.4 mb - 0.00 in0.0 mm 0.00 in0.0 mm
08:17 AM 55.4°F13.0°C 50.4°F10.2°C 83% 2.2 mph SW3.5 kmh SW 4.3 mph6.9 kmh 30.34 in1027.4 mb - 0.00 in0.0 mm 0.00 in0.0 mm
08:22 AM 55.4°F13.0°C 50.0°F10.0°C 82% 2.7 mph SW4.3 kmh SW 4.7 mph7.6 kmh 30.34 in1027.4 mb - 0.00 in0.0 mm 0.00 in0.0 mm
08:27 AM 55.4°F13.0°C 50.0°F10.0°C 82% 2.5 mph SW4.0 kmh SW 2.5 mph4.0 kmh 30.34 in1027.4 mb - 0.00 in0.0 mm 0.00 in0.0 mm
08:32 AM 55.6°F13.1°C 50.2°F10.1°C 82% 2.7 mph WSW4.3 kmh WSW 5.1 mph8.2 kmh 30.34 in1027.4 mb - 0.00 in0.0 mm 0.00 in0.0 mm
08:37 AM 55.8°F13.2°C 50.4°F10.2°C 82% 2.2 mph SW3.5 kmh SW 4.5 mph7.2 kmh 30.34 in1027.4 mb - 0.00 in0.0 mm 0.00 in0.0 mm
08:42 AM 55.9°F13.3°C 50.5°F10.3°C 82% 2.2 mph SW3.5 kmh SW 2.2 mph3.5 kmh 30.34 in1027.4 mb - 0.00 in0.0 mm 0.00 in0.0 mm
08:47 AM 55.9°F13.3°C 50.5°F10.3°C 82% 2.9 mph S4.7 kmh S 2.9 mph4.7 kmh 30.34 in1027.4 mb - 0.00 in0.0 mm 0.00 in0.0 mm
08:52 AM 56.1°F13.4°C 50.7°F10.4°C 82% 0.9 mph SW1.4 kmh SW 2.7 mph4.3 kmh 30.34 in1027.4 mb - 0.00 in0.0 mm 0.00 in0.0 mm
08:57 AM 56.5°F13.6°C 51.1°F10.6°C 82% 0.9 mph SW1.4 kmh SW 3.6 mph5.8 kmh 30.34 in1027.4 mb - 0.00 in0.0 mm 0.00 in0.0 mm
09:02 AM 56.8°F13.8°C 51.4°F10.8°C 82% 0.2 mph SW0.3 kmh SW 2.0 mph3.2 kmh 30.34 in1027.4 mb - 0.00 in0.0 mm 0.00 in0.0 mm
09:07 AM 57.6°F14.2°C 52.2°F11.2°C 82% Calm Calm -- 30.34 in1027.4 mb - 0.00 in0.0 mm 0.00 in0.0 mm
09:12 AM 58.3°F14.6°C 52.9°F11.6°C 82% 1.1 mph SW1.8 kmh SW 2.7 mph4.3 kmh 30.34 in1027.4 mb - 0.00 in0.0 mm 0.00 in0.0 mm
09:17 AM 59.0°F15.0°C 53.2°F11.8°C 81% 2.0 mph SW3.2 kmh SW 3.6 mph5.8 kmh 30.34 in1027.4 mb - 0.00 in0.0 mm 0.00 in0.0 mm
09:22 AM 59.7°F15.4°C 54.0°F12.2°C 81% 0.7 mph SSW1.1 kmh SSW 3.1 mph5.0 kmh 30.34 in1027.4 mb - 0.00 in0.0 mm 0.00 in0.0 mm
09:27 AM 60.3°F15.7°C 53.8°F12.1°C 79% 0.7 mph S1.1 kmh S 3.8 mph6.1 kmh 30.34 in1027.4 mb - 0.00 in0.0 mm 0.00 in0.0 mm
09:32 AM 60.8°F16.0°C 54.0°F12.2°C 78% 0.9 mph SSW1.4 kmh SSW 3.6 mph5.8 kmh 30.34 in1027.4 mb - 0.00 in0.0 mm 0.00 in0.0 mm
09:37 AM 61.5°F16.4°C 54.7°F12.6°C 78% 1.3 mph S2.1 kmh S 4.5 mph7.2 kmh 30.34 in1027.4 mb - 0.00 in0.0 mm 0.00 in0.0 mm
09:42 AM 61.9°F16.6°C 54.3°F12.4°C 76% 1.1 mph SSW1.8 kmh SSW 4.7 mph7.6 kmh 30.34 in1027.4 mb - 0.00 in0.0 mm 0.00 in0.0 mm
09:47 AM 62.4°F16.9°C 54.7°F12.6°C 76% 2.0 mph S3.2 kmh S 4.3 mph6.9 kmh 30.34 in1027.4 mb - 0.00 in0.0 mm 0.00 in0.0 mm
09:52 AM 63.0°F17.2°C 54.1°F12.3°C 73% 1.6 mph ESE2.6 kmh ESE 4.9 mph7.9 kmh 30.34 in1027.4 mb - 0.00 in0.0 mm 0.00 in0.0 mm
09:57 AM 63.3°F17.4°C 53.4°F11.9°C 70% 2.0 mph SE3.2 kmh SE 4.7 mph7.6 kmh 30.34 in1027.4 mb - 0.00 in0.0 mm 0.00 in0.0 mm
10:02 AM 63.1°F17.3°C 53.2°F11.8°C 70% 1.6 mph SSE2.6 kmh SSE 1.6 mph2.6 kmh 30.34 in1027.4 mb - 0.00 in0.0 mm 0.00 in0.0 mm
10:07 AM 63.3°F17.4°C 53.1°F11.7°C 69% 1.8 mph SE2.9 kmh SE 4.5 mph7.2 kmh 30.34 in1027.4 mb - 0.00 in0.0 mm 0.00 in0.0 mm
10:12 AM 63.9°F17.7°C 53.4°F11.9°C 69% 0.4 mph E0.6 kmh E 3.1 mph5.0 kmh 30.34 in1027.4 mb - 0.00 in0.0 mm 0.00 in0.0 mm
10:17 AM 64.2°F17.9°C 53.4°F11.9°C 68% 1.3 mph S2.1 kmh S 5.1 mph8.2 kmh 30.34 in1027.4 mb - 0.00 in0.0 mm 0.00 in0.0 mm
10:22 AM 64.4°F18.0°C 53.2°F11.8°C 67% 0.7 mph SSE1.1 kmh SSE 3.4 mph5.5 kmh 30.34 in1027.4 mb - 0.00 in0.0 mm 0.00 in0.0 mm
10:27 AM 64.6°F18.1°C 53.1°F11.7°C 66% 1.6 mph SE2.6 kmh SE 4.0 mph6.4 kmh 30.34 in1027.4 mb - 0.00 in0.0 mm 0.00 in0.0 mm
10:32 AM 64.4°F18.0°C 52.3°F11.3°C 65% 0.9 mph SSE1.4 kmh SSE 5.4 mph8.7 kmh 30.34 in1027.4 mb - 0.00 in0.0 mm 0.00 in0.0 mm
10:37 AM 64.8°F18.2°C 53.6°F12.0°C 67% 1.3 mph WSW2.1 kmh WSW 4.0 mph6.4 kmh 30.34 in1027.4 mb - 0.00 in0.0 mm 0.00 in0.0 mm
10:42 AM 65.7°F18.7°C 54.5°F12.5°C 67% 1.3 mph SW2.1 kmh SW 1.3 mph2.1 kmh 30.34 in1027.4 mb - 0.00 in0.0 mm 0.00 in0.0 mm
10:47 AM 66.0°F18.9°C 54.3°F12.4°C 66% 2.0 mph S3.2 kmh S 4.9 mph7.9 kmh 30.34 in1027.4 mb - 0.00 in0.0 mm 0.00 in0.0 mm
10:52 AM 66.2°F19.0°C 53.6°F12.0°C 64% 1.3 mph SSW2.1 kmh SSW 4.0 mph6.4 kmh 30.34 in1027.4 mb - 0.00 in0.0 mm 0.00 in0.0 mm
10:57 AM 66.4°F19.1°C 53.4°F11.9°C 63% 2.5 mph S4.0 kmh S 4.9 mph7.9 kmh 30.34 in1027.4 mb - 0.00 in0.0 mm 0.00 in0.0 mm
11:02 AM 66.9°F19.4°C 54.0°F12.2°C 63% 2.0 mph SSE3.2 kmh SSE 6.3 mph10.1 kmh 30.34 in1027.4 mb - 0.00 in0.0 mm 0.00 in0.0 mm
11:07 AM 67.6°F19.8°C 54.7°F12.6°C 63% 2.0 mph SW3.2 kmh SW 5.1 mph8.2 kmh 30.34 in1027.4 mb - 0.00 in0.0 mm 0.00 in0.0 mm
11:12 AM 67.8°F19.9°C 54.3°F12.4°C 62% 2.2 mph SSW3.5 kmh SSW 4.0 mph6.4 kmh 30.31 in1026.4 mb - 0.00 in0.0 mm 0.00 in0.0 mm
11:17 AM 67.6°F19.8°C 53.2°F11.8°C 60% 1.3 mph S2.1 kmh S 4.9 mph7.9 kmh 30.31 in1026.4 mb - 0.00 in0.0 mm 0.00 in0.0 mm
11:22 AM 67.8°F19.9°C 54.0°F12.2°C 61% 0.2 mph S0.3 kmh S 2.5 mph4.0 kmh 30.31 in1026.4 mb - 0.00 in0.0 mm 0.00 in0.0 mm
11:27 AM 68.4°F20.2°C 54.0°F12.2°C 60% 0.9 mph SSW1.4 kmh SSW 4.9 mph7.9 kmh 30.31 in1026.4 mb - 0.00 in0.0 mm 0.00 in0.0 mm
11:32 AM 68.2°F20.1°C 53.2°F11.8°C 59% 1.1 mph S1.8 kmh S 3.6 mph5.8 kmh 30.31 in1026.4 mb - 0.00 in0.0 mm 0.00 in0.0 mm
11:37 AM 68.7°F20.4°C 53.8°F12.1°C 59% 0.2 mph E0.3 kmh E 2.5 mph4.0 kmh 30.31 in1026.4 mb - 0.00 in0.0 mm 0.00 in0.0 mm
11:42 AM 69.3°F20.7°C 54.3°F12.4°C 59% 1.6 mph NNE2.6 kmh NNE 3.4 mph5.5 kmh 30.31 in1026.4 mb - 0.00 in0.0 mm 0.00 in0.0 mm
11:47 AM 69.8°F21.0°C 54.9°F12.7°C 59% 0.4 mph N0.6 kmh N 2.0 mph3.2 kmh 30.31 in1026.4 mb - 0.00 in0.0 mm 0.00 in0.0 mm
11:52 AM 69.6°F20.9°C 54.1°F12.3°C 58% 0.9 mph S1.4 kmh S 4.0 mph6.4 kmh 30.31 in1026.4 mb - 0.00 in0.0 mm 0.00 in0.0 mm
11:57 AM 69.8°F21.0°C 54.0°F12.2°C 57% 1.8 mph E2.9 kmh E 5.6 mph9.0 kmh 30.31 in1026.4 mb - 0.00 in0.0 mm 0.00 in0.0 mm
12:02 PM 69.8°F21.0°C 54.0°F12.2°C 57% 3.1 mph 5.0 kmh 6.5 mph10.5 kmh 30.31 in1026.4 mb - 0.00 in0.0 mm 0.00 in0.0 mm
12:07 PM 69.4°F20.8°C 53.6°F12.0°C 57% 1.8 mph N2.9 kmh N 4.0 mph6.4 kmh 30.31 in1026.4 mb - 0.00 in0.0 mm 0.00 in0.0 mm
12:12 PM 69.6°F20.9°C 53.2°F11.8°C 56% 2.0 mph ENE3.2 kmh ENE 5.8 mph9.3 kmh 30.31 in1026.4 mb - 0.00 in0.0 mm 0.00 in0.0 mm
12:17 PM 69.6°F20.9°C 53.8°F12.1°C 57% 3.4 mph E5.5 kmh E 5.1 mph8.2 kmh 30.31 in1026.4 mb - 0.00 in0.0 mm 0.00 in0.0 mm
12:22 PM 70.2°F21.2°C 53.8°F12.1°C 56% 1.6 mph E2.6 kmh E 3.6 mph5.8 kmh 30.31 in1026.4 mb - 0.00 in0.0 mm 0.00 in0.0 mm
12:27 PM 70.3°F21.3°C 54.0°F12.2°C 56% 0.9 mph N1.4 kmh N 3.1 mph5.0 kmh 30.28 in1025.4 mb - 0.00 in0.0 mm 0.00 in0.0 mm
12:32 PM 70.7°F21.5°C 53.8°F12.1°C 55% 3.4 mph NW5.5 kmh NW 6.7 mph10.8 kmh 30.28 in1025.4 mb - 0.00 in0.0 mm 0.00 in0.0 mm
12:37 PM 70.5°F21.4°C 53.1°F11.7°C 54% 0.9 mph E1.4 kmh E 3.6 mph5.8 kmh 30.28 in1025.4 mb - 0.00 in0.0 mm 0.00 in0.0 mm
12:42 PM 70.9°F21.6°C 53.4°F11.9°C 54% 3.4 mph NE5.5 kmh NE 6.3 mph10.1 kmh 30.28 in1025.4 mb - 0.00 in0.0 mm 0.00 in0.0 mm
12:47 PM 71.6°F22.0°C 53.6°F12.0°C 53% 4.0 mph ENE6.4 kmh ENE 7.8 mph12.6 kmh 30.28 in1025.4 mb - 0.00 in0.0 mm 0.00 in0.0 mm
12:52 PM 72.0°F22.2°C 54.0°F12.2°C 53% 3.6 mph N5.8 kmh N 6.7 mph10.8 kmh 30.28 in1025.4 mb - 0.00 in0.0 mm 0.00 in0.0 mm
12:57 PM 72.3°F22.4°C 53.8°F12.1°C 52% 3.4 mph N5.5 kmh N 8.3 mph13.4 kmh 30.28 in1025.4 mb - 0.00 in0.0 mm 0.00 in0.0 mm
01:02 PM 72.7°F22.6°C 54.1°F12.3°C 52% 3.1 mph NNE5.0 kmh NNE 7.6 mph12.2 kmh 30.28 in1025.4 mb - 0.00 in0.0 mm 0.00 in0.0 mm
01:07 PM 73.0°F22.8°C 53.8°F12.1°C 51% 3.6 mph NW5.8 kmh NW 3.6 mph5.8 kmh 30.28 in1025.4 mb - 0.00 in0.0 mm 0.00 in0.0 mm
01:12 PM 73.0°F22.8°C 53.2°F11.8°C 50% 3.8 mph N6.1 kmh N 7.4 mph11.9 kmh 30.28 in1025.4 mb - 0.00 in0.0 mm 0.00 in0.0 mm
01:17 PM 73.6°F23.1°C 53.2°F11.8°C 49% 2.5 mph NW4.0 kmh NW 6.3 mph10.1 kmh 30.28 in1025.4 mb - 0.00 in0.0 mm 0.00 in0.0 mm
01:22 PM 74.3°F23.5°C 54.0°F12.2°C 49% 2.7 mph NW4.3 kmh NW 2.7 mph4.3 kmh 30.28 in1025.4 mb - 0.00 in0.0 mm 0.00 in0.0 mm
01:27 PM 73.9°F23.3°C 52.5°F11.4°C 47% 2.2 mph NE3.5 kmh NE 6.0 mph9.7 kmh 30.25 in1024.4 mb - 0.00 in0.0 mm 0.00 in0.0 mm
01:32 PM 74.1°F23.4°C 53.2°F11.8°C 48% 4.0 mph NE6.4 kmh NE 7.2 mph11.6 kmh 30.25 in1024.4 mb - 0.00 in0.0 mm 0.00 in0.0 mm
01:37 PM 74.3°F23.5°C 53.4°F11.9°C 48% 3.4 mph N5.5 kmh N 7.6 mph12.2 kmh 30.25 in1024.4 mb - 0.00 in0.0 mm 0.00 in0.0 mm
01:42 PM 74.3°F23.5°C 53.4°F11.9°C 48% 2.9 mph NNW4.7 kmh NNW 6.7 mph10.8 kmh 30.28 in1025.4 mb - 0.00 in0.0 mm 0.00 in0.0 mm
01:47 PM 74.8°F23.8°C 53.2°F11.8°C 47% 1.6 mph E2.6 kmh E 5.1 mph8.2 kmh 30.28 in1025.4 mb - 0.00 in0.0 mm 0.00 in0.0 mm
01:52 PM 75.2°F24.0°C 54.1°F12.3°C 48% 0.7 mph W1.1 kmh W 0.7 mph1.1 kmh 30.28 in1025.4 mb - 0.00 in0.0 mm 0.00 in0.0 mm
01:57 PM 75.7°F24.3°C 54.7°F12.6°C 48% 2.9 mph SW4.7 kmh SW 6.5 mph10.5 kmh 30.31 in1026.4 mb - 0.00 in0.0 mm 0.00 in0.0 mm
02:02 PM 75.9°F24.4°C 54.3°F12.4°C 47% Calm Calm -- 30.31 in1026.4 mb - 0.00 in0.0 mm 0.00 in0.0 mm
02:07 PM 75.6°F24.2°C 53.4°F11.9°C 46% 2.7 mph NNW4.3 kmh NNW 6.0 mph9.7 kmh 30.31 in1026.4 mb - 0.00 in0.0 mm 0.00 in0.0 mm
02:12 PM 75.7°F24.3°C 54.1°F12.3°C 47% Calm Calm 0.2 mph0.3 kmh 30.28 in1025.4 mb - 0.00 in0.0 mm 0.00 in0.0 mm
02:17 PM 76.5°F24.7°C 54.1°F12.3°C 46% Calm Calm -- 30.28 in1025.4 mb - 0.00 in0.0 mm 0.00 in0.0 mm
02:22 PM 76.8°F24.9°C 54.0°F12.2°C 45% 1.3 mph SW2.1 kmh SW 3.4 mph5.5 kmh 30.28 in1025.4 mb - 0.00 in0.0 mm 0.00 in0.0 mm
02:27 PM 77.2°F25.1°C 53.6°F12.0°C 44% 3.1 mph SW5.0 kmh SW 6.5 mph10.5 kmh 30.28 in1025.4 mb - 0.00 in0.0 mm 0.00 in0.0 mm
02:32 PM 77.0°F25.0°C 53.4°F11.9°C 44% 0.9 mph WSW1.4 kmh WSW 3.6 mph5.8 kmh 30.28 in1025.4 mb - 0.00 in0.0 mm 0.00 in0.0 mm
02:37 PM 77.5°F25.3°C 54.0°F12.2°C 44% 3.8 mph NW6.1 kmh NW 6.9 mph11.1 kmh 30.28 in1025.4 mb - 0.00 in0.0 mm 0.00 in0.0 mm
02:42 PM 77.9°F25.5°C 54.3°F12.4°C 44% 2.5 mph NNW4.0 kmh NNW 5.4 mph8.7 kmh 30.28 in1025.4 mb - 0.00 in0.0 mm 0.00 in0.0 mm
02:47 PM 78.1°F25.6°C 53.8°F12.1°C 43% 1.3 mph N2.1 kmh N 4.3 mph6.9 kmh 30.28 in1025.4 mb - 0.00 in0.0 mm 0.00 in0.0 mm
02:52 PM 78.1°F25.6°C 53.8°F12.1°C 43% 2.2 mph NW3.5 kmh NW 4.9 mph7.9 kmh 30.28 in1025.4 mb - 0.00 in0.0 mm 0.00 in0.0 mm
02:57 PM 78.1°F25.6°C 53.8°F12.1°C 43% 2.5 mph NW4.0 kmh NW 6.9 mph11.1 kmh 30.28 in1025.4 mb - 0.00 in0.0 mm 0.00 in0.0 mm
03:02 PM 78.3°F25.7°C 54.0°F12.2°C 43% 2.5 mph WNW4.0 kmh WNW 6.3 mph10.1 kmh 30.28 in1025.4 mb - 0.00 in0.0 mm 0.00 in0.0 mm
03:07 PM 78.6°F25.9°C 54.3°F12.4°C 43% 0.7 mph NW1.1 kmh NW 2.9 mph4.7 kmh 30.28 in1025.4 mb - 0.00 in0.0 mm 0.00 in0.0 mm
03:12 PM 78.6°F25.9°C 53.6°F12.0°C 42% 1.8 mph NW2.9 kmh NW 5.1 mph8.2 kmh 30.25 in1024.4 mb - 0.00 in0.0 mm 0.00 in0.0 mm
03:17 PM 78.8°F26.0°C 53.8°F12.1°C 42% 0.9 mph NW1.4 kmh NW 3.4 mph5.5 kmh 30.25 in1024.4 mb - 0.00 in0.0 mm 0.00 in0.0 mm
03:22 PM 78.8°F26.0°C 53.1°F11.7°C 41% 0.9 mph SW1.4 kmh SW 4.5 mph7.2 kmh 30.25 in1024.4 mb - 0.00 in0.0 mm 0.00 in0.0 mm
03:27 PM 78.6°F25.9°C 52.9°F11.6°C 41% 2.7 mph WNW4.3 kmh WNW 6.3 mph10.1 kmh 30.25 in1024.4 mb - 0.00 in0.0 mm 0.00 in0.0 mm
03:32 PM 78.4°F25.8°C 52.2°F11.2°C 40% 2.9 mph NW4.7 kmh NW 6.0 mph9.7 kmh 30.25 in1024.4 mb - 0.00 in0.0 mm 0.00 in0.0 mm
03:37 PM 78.4°F25.8°C 52.9°F11.6°C 41% 2.5 mph WSW4.0 kmh WSW 4.7 mph7.6 kmh 30.25 in1024.4 mb - 0.00 in0.0 mm 0.00 in0.0 mm
03:42 PM 78.4°F25.8°C 52.9°F11.6°C 41% 3.6 mph W5.8 kmh W 7.4 mph11.9 kmh 30.25 in1024.4 mb - 0.00 in0.0 mm 0.00 in0.0 mm
03:47 PM 78.8°F26.0°C 53.1°F11.7°C 41% 0.9 mph W1.4 kmh W 4.9 mph7.9 kmh 30.25 in1024.4 mb - 0.00 in0.0 mm 0.00 in0.0 mm
03:52 PM 78.6°F25.9°C 52.9°F11.6°C 41% 1.6 mph WNW2.6 kmh WNW 3.6 mph5.8 kmh 30.25 in1024.4 mb - 0.00 in0.0 mm 0.00 in0.0 mm
03:57 PM 78.4°F25.8°C 52.9°F11.6°C 41% 2.5 mph N4.0 kmh N 4.3 mph6.9 kmh 30.28 in1025.4 mb - 0.00 in0.0 mm 0.00 in0.0 mm
04:02 PM 78.4°F25.8°C 52.9°F11.6°C 41% 2.0 mph NNW3.2 kmh NNW 5.6 mph9.0 kmh 30.28 in1025.4 mb - 0.00 in0.0 mm 0.00 in0.0 mm
04:07 PM 78.4°F25.8°C 52.9°F11.6°C 41% 2.9 mph N4.7 kmh N 2.9 mph4.7 kmh 30.28 in1025.4 mb - 0.00 in0.0 mm 0.00 in0.0 mm
04:12 PM 78.6°F25.9°C 52.9°F11.6°C 41% 3.1 mph N5.0 kmh N 3.1 mph5.0 kmh 30.25 in1024.4 mb - 0.00 in0.0 mm 0.00 in0.0 mm
04:17 PM 78.6°F25.9°C 52.3°F11.3°C 40% 2.2 mph WNW3.5 kmh WNW 3.6 mph5.8 kmh 30.25 in1024.4 mb - 0.00 in0.0 mm 0.00 in0.0 mm
04:22 PM 78.6°F25.9°C 52.3°F11.3°C 40% 1.6 mph NW2.6 kmh NW 4.0 mph6.4 kmh 30.25 in1024.4 mb - 0.00 in0.0 mm 0.00 in0.0 mm
04:27 PM 78.4°F25.8°C 52.2°F11.2°C 40% 2.0 mph W3.2 kmh W 6.9 mph11.1 kmh 30.28 in1025.4 mb - 0.00 in0.0 mm 0.00 in0.0 mm
04:32 PM 78.3°F25.7°C 52.0°F11.1°C 40% 3.4 mph WNW5.5 kmh WNW 5.6 mph9.0 kmh 30.28 in1025.4 mb - 0.00 in0.0 mm 0.00 in0.0 mm
04:37 PM 78.3°F25.7°C 52.0°F11.1°C 40% 3.4 mph WNW5.5 kmh WNW 5.8 mph9.3 kmh 30.28 in1025.4 mb - 0.00 in0.0 mm 0.00 in0.0 mm
04:42 PM 78.1°F25.6°C 51.8°F11.0°C 40% 2.9 mph WNW4.7 kmh WNW 5.1 mph8.2 kmh 30.28 in1025.4 mb - 0.00 in0.0 mm 0.00 in0.0 mm
04:47 PM 77.9°F25.5°C 51.6°F10.9°C 40% 3.4 mph NW5.5 kmh NW 6.5 mph10.5 kmh 30.28 in1025.4 mb - 0.00 in0.0 mm 0.00 in0.0 mm
04:52 PM 77.9°F25.5°C 52.3°F11.3°C 41% 4.0 mph WNW6.4 kmh WNW 7.2 mph11.6 kmh 30.28 in1025.4 mb - 0.00 in0.0 mm 0.00 in0.0 mm
04:57 PM 77.5°F25.3°C 52.0°F11.1°C 41% 4.0 mph NW6.4 kmh NW 6.5 mph10.5 kmh 30.28 in1025.4 mb - 0.00 in0.0 mm 0.00 in0.0 mm
05:02 PM 77.5°F25.3°C 52.0°F11.1°C 41% 3.1 mph NW5.0 kmh NW 3.1 mph5.0 kmh 30.28 in1025.4 mb - 0.00 in0.0 mm 0.00 in0.0 mm
05:07 PM 77.4°F25.2°C 51.8°F11.0°C 41% 3.6 mph NW5.8 kmh NW 3.6 mph5.8 kmh 30.28 in1025.4 mb - 0.00 in0.0 mm 0.00 in0.0 mm
05:12 PM 77.2°F25.1°C 51.6°F10.9°C 41% 3.8 mph NW6.1 kmh NW 3.8 mph6.1 kmh 30.28 in1025.4 mb - 0.00 in0.0 mm 0.00 in0.0 mm
05:17 PM 77.0°F25.0°C 52.2°F11.2°C 42% 3.8 mph WNW6.1 kmh WNW 6.7 mph10.8 kmh 30.28 in1025.4 mb - 0.00 in0.0 mm 0.00 in0.0 mm
05:27 PM 76.5°F24.7°C 52.3°F11.3°C 43% 3.1 mph NW5.0 kmh NW 5.6 mph9.0 kmh 30.28 in1025.4 mb - 0.00 in0.0 mm 0.00 in0.0 mm
05:32 PM 76.1°F24.5°C 52.0°F11.1°C 43% 2.9 mph NW4.7 kmh NW 2.9 mph4.7 kmh 30.28 in1025.4 mb - 0.00 in0.0 mm 0.00 in0.0 mm
05:37 PM 75.7°F24.3°C 51.6°F10.9°C 43% 1.8 mph NW2.9 kmh NW 4.5 mph7.2 kmh 30.28 in1025.4 mb - 0.00 in0.0 mm 0.00 in0.0 mm
05:42 PM 75.2°F24.0°C 51.3°F10.7°C 43% 3.6 mph NW5.8 kmh NW 6.5 mph10.5 kmh 30.28 in1025.4 mb - 0.00 in0.0 mm 0.00 in0.0 mm
05:47 PM 74.7°F23.7°C 51.3°F10.7°C 44% 2.2 mph NW3.5 kmh NW 4.3 mph6.9 kmh 30.28 in1025.4 mb - 0.00 in0.0 mm 0.00 in0.0 mm
05:52 PM 74.1°F23.4°C 50.9°F10.5°C 44% 2.0 mph WNW3.2 kmh WNW 4.7 mph7.6 kmh 30.28 in1025.4 mb - 0.00 in0.0 mm 0.00 in0.0 mm
05:57 PM 73.8°F23.2°C 50.5°F10.3°C 44% 0.7 mph WNW1.1 kmh WNW 2.7 mph4.3 kmh 30.28 in1025.4 mb - 0.00 in0.0 mm 0.00 in0.0 mm
06:02 PM 73.2°F22.9°C 50.5°F10.3°C 45% 2.5 mph W4.0 kmh W 5.8 mph9.3 kmh 30.28 in1025.4 mb - 0.00 in0.0 mm 0.00 in0.0 mm
06:07 PM 72.9°F22.7°C 50.9°F10.5°C 46% 3.4 mph NW5.5 kmh NW 6.5 mph10.5 kmh 30.28 in1025.4 mb - 0.00 in0.0 mm 0.00 in0.0 mm
06:12 PM 72.3°F22.4°C 50.4°F10.2°C 46% 2.0 mph W3.2 kmh W 4.9 mph7.9 kmh 30.28 in1025.4 mb - 0.00 in0.0 mm 0.00 in0.0 mm
06:17 PM 71.8°F22.1°C 50.5°F10.3°C 47% 0.9 mph NW1.4 kmh NW 3.4 mph5.5 kmh 30.28 in1025.4 mb - 0.00 in0.0 mm 0.00 in0.0 mm
06:22 PM 71.4°F21.9°C 50.2°F10.1°C 47% 1.1 mph NW1.8 kmh NW 3.1 mph5.0 kmh 30.28 in1025.4 mb - 0.00 in0.0 mm 0.00 in0.0 mm
06:27 PM 71.1°F21.7°C 50.4°F10.2°C 48% 1.1 mph NW1.8 kmh NW 1.1 mph1.8 kmh 30.31 in1026.4 mb - 0.00 in0.0 mm 0.00 in0.0 mm
06:32 PM 70.7°F21.5°C 50.5°F10.3°C 49% 0.2 mph WNW0.3 kmh WNW 1.3 mph2.1 kmh 30.31 in1026.4 mb - 0.00 in0.0 mm 0.00 in0.0 mm
06:37 PM 70.2°F21.2°C 50.2°F10.1°C 49% Calm Calm -- 30.31 in1026.4 mb - 0.00 in0.0 mm 0.00 in0.0 mm
06:42 PM 69.8°F21.0°C 49.8°F9.9°C 49% Calm Calm -- 30.25 in1024.4 mb - 0.00 in0.0 mm 0.00 in0.0 mm
06:47 PM 68.9°F20.5°C 50.0°F10.0°C 51% Calm Calm -- 30.25 in1024.4 mb - 0.00 in0.0 mm 0.00 in0.0 mm
06:52 PM 68.4°F20.2°C 49.5°F9.7°C 51% 1.6 mph S2.6 kmh S 2.9 mph4.7 kmh 30.25 in1024.4 mb - 0.00 in0.0 mm 0.00 in0.0 mm
06:57 PM 67.8°F19.9°C 49.6°F9.8°C 52% Calm Calm -- 30.28 in1025.4 mb - 0.00 in0.0 mm 0.00 in0.0 mm
07:02 PM 67.3°F19.6°C 49.6°F9.8°C 53% Calm Calm -- 30.28 in1025.4 mb - 0.00 in0.0 mm 0.00 in0.0 mm
07:07 PM 66.9°F19.4°C 49.3°F9.6°C 53% Calm Calm -- 30.28 in1025.4 mb - 0.00 in0.0 mm 0.00 in0.0 mm
07:12 PM 66.4°F19.1°C 49.3°F9.6°C 54% Calm Calm -- 30.28 in1025.4 mb - 0.00 in0.0 mm 0.00 in0.0 mm
07:17 PM 65.8°F18.8°C 49.3°F9.6°C 55% Calm Calm -- 30.28 in1025.4 mb - 0.00 in0.0 mm 0.00 in0.0 mm
07:22 PM 65.3°F18.5°C 49.3°F9.6°C 56% Calm Calm -- 30.28 in1025.4 mb - 0.00 in0.0 mm 0.00 in0.0 mm
07:27 PM 64.9°F18.3°C 48.9°F9.4°C 56% Calm Calm -- 30.25 in1024.4 mb - 0.00 in0.0 mm 0.00 in0.0 mm
07:32 PM 64.4°F18.0°C 48.9°F9.4°C 57% Calm Calm -- 30.25 in1024.4 mb - 0.00 in0.0 mm 0.00 in0.0 mm
07:37 PM 64.0°F17.8°C 48.9°F9.4°C 58% Calm Calm -- 30.25 in1024.4 mb - 0.00 in0.0 mm 0.00 in0.0 mm
07:42 PM 63.7°F17.6°C 49.1°F9.5°C 59% Calm Calm -- 30.28 in1025.4 mb - 0.00 in0.0 mm 0.00 in0.0 mm
07:47 PM 63.1°F17.3°C 48.6°F9.2°C 59% Calm Calm -- 30.28 in1025.4 mb - 0.00 in0.0 mm 0.00 in0.0 mm
07:52 PM 62.8°F17.1°C 48.7°F9.3°C 60% Calm Calm -- 30.28 in1025.4 mb - 0.00 in0.0 mm 0.00 in0.0 mm
07:57 PM 62.4°F16.9°C 48.7°F9.3°C 61% Calm Calm -- 30.28 in1025.4 mb - 0.00 in0.0 mm 0.00 in0.0 mm
08:02 PM 62.1°F16.7°C 48.9°F9.4°C 62% Calm Calm -- 30.28 in1025.4 mb - 0.00 in0.0 mm 0.00 in0.0 mm
08:07 PM 61.9°F16.6°C 49.1°F9.5°C 63% Calm Calm -- 30.28 in1025.4 mb - 0.00 in0.0 mm 0.00 in0.0 mm
08:12 PM 61.5°F16.4°C 49.3°F9.6°C 64% Calm Calm -- 30.28 in1025.4 mb - 0.00 in0.0 mm 0.00 in0.0 mm
08:17 PM 61.3°F16.3°C 49.5°F9.7°C 65% Calm Calm -- 30.28 in1025.4 mb - 0.00 in0.0 mm 0.00 in0.0 mm
08:22 PM 61.3°F16.3°C 49.5°F9.7°C 65% Calm Calm -- 30.28 in1025.4 mb - 0.00 in0.0 mm 0.00 in0.0 mm
08:27 PM 61.2°F16.2°C 49.3°F9.6°C 65% Calm Calm -- 30.28 in1025.4 mb - 0.00 in0.0 mm 0.00 in0.0 mm
08:32 PM 61.2°F16.2°C 49.6°F9.8°C 66% Calm Calm -- 30.28 in1025.4 mb - 0.00 in0.0 mm 0.00 in0.0 mm
08:37 PM 61.0°F16.1°C 50.0°F10.0°C 67% Calm Calm -- 30.28 in1025.4 mb - 0.00 in0.0 mm 0.00 in0.0 mm
08:42 PM 60.8°F16.0°C 49.5°F9.7°C 66% Calm Calm -- 30.28 in1025.4 mb - 0.00 in0.0 mm 0.00 in0.0 mm
08:47 PM 60.6°F15.9°C 49.6°F9.8°C 67% Calm Calm -- 30.28 in1025.4 mb - 0.00 in0.0 mm 0.00 in0.0 mm
08:52 PM 60.3°F15.7°C 49.6°F9.8°C 68% Calm Calm -- 30.28 in1025.4 mb - 0.00 in0.0 mm 0.00 in0.0 mm
08:57 PM 60.1°F15.6°C 49.5°F9.7°C 68% Calm Calm -- 30.28 in1025.4 mb - 0.00 in0.0 mm 0.00 in0.0 mm
09:02 PM 59.9°F15.5°C 49.3°F9.6°C 68% Calm Calm -- 30.28 in1025.4 mb - 0.00 in0.0 mm 0.00 in0.0 mm
09:07 PM 59.5°F15.3°C 48.9°F9.4°C 68% Calm Calm -- 30.28 in1025.4 mb - 0.00 in0.0 mm 0.00 in0.0 mm
09:12 PM 59.4°F15.2°C 49.3°F9.6°C 69% Calm Calm -- 30.28 in1025.4 mb - 0.00 in0.0 mm 0.00 in0.0 mm
09:17 PM 59.2°F15.1°C 49.1°F9.5°C 69% Calm Calm -- 30.28 in1025.4 mb - 0.00 in0.0 mm 0.00 in0.0 mm
09:22 PM 59.0°F15.0°C 48.9°F9.4°C 69% Calm Calm -- 30.28 in1025.4 mb - 0.00 in0.0 mm 0.00 in0.0 mm
09:27 PM 58.8°F14.9°C 49.1°F9.5°C 70% Calm Calm -- 30.31 in1026.4 mb - 0.00 in0.0 mm 0.00 in0.0 mm
09:32 PM 58.6°F14.8°C 48.9°F9.4°C 70% Calm Calm -- 30.31 in1026.4 mb - 0.00 in0.0 mm 0.00 in0.0 mm
09:37 PM 58.5°F14.7°C 49.1°F9.5°C 71% Calm Calm -- 30.31 in1026.4 mb - 0.00 in0.0 mm 0.00 in0.0 mm
09:42 PM 58.5°F14.7°C 49.5°F9.7°C 72% Calm Calm -- 30.31 in1026.4 mb - 0.00 in0.0 mm 0.00 in0.0 mm
09:47 PM 58.3°F14.6°C 49.3°F9.6°C 72% Calm Calm -- 30.31 in1026.4 mb - 0.00 in0.0 mm 0.00 in0.0 mm
09:52 PM 58.3°F14.6°C 49.3°F9.6°C 72% Calm Calm -- 30.31 in1026.4 mb - 0.00 in0.0 mm 0.00 in0.0 mm
09:57 PM 57.9°F14.4°C 49.3°F9.6°C 73% Calm Calm -- 30.31 in1026.4 mb - 0.00 in0.0 mm 0.00 in0.0 mm
10:02 PM 57.6°F14.2°C 48.9°F9.4°C 73% Calm Calm -- 30.31 in1026.4 mb - 0.00 in0.0 mm 0.00 in0.0 mm
10:07 PM 57.2°F14.0°C 48.2°F9.0°C 72% Calm Calm -- 30.31 in1026.4 mb - 0.00 in0.0 mm 0.00 in0.0 mm
10:12 PM 57.2°F14.0°C 48.6°F9.2°C 73% Calm Calm -- 30.31 in1026.4 mb - 0.00 in0.0 mm 0.00 in0.0 mm
10:17 PM 57.0°F13.9°C 48.7°F9.3°C 74% Calm Calm -- 30.31 in1026.4 mb - 0.00 in0.0 mm 0.00 in0.0 mm
10:22 PM 57.0°F13.9°C 48.7°F9.3°C 74% Calm Calm -- 30.31 in1026.4 mb - 0.00 in0.0 mm 0.00 in0.0 mm
10:27 PM 57.0°F13.9°C 48.7°F9.3°C 74% Calm Calm -- 30.31 in1026.4 mb - 0.00 in0.0 mm 0.00 in0.0 mm
10:32 PM 56.8°F13.8°C 48.7°F9.3°C 74% Calm Calm -- 30.31 in1026.4 mb - 0.00 in0.0 mm 0.00 in0.0 mm
10:37 PM 56.7°F13.7°C 48.6°F9.2°C 74% Calm Calm -- 30.31 in1026.4 mb - 0.00 in0.0 mm 0.00 in0.0 mm
10:42 PM 56.5°F13.6°C 48.4°F9.1°C 74% Calm Calm -- 30.28 in1025.4 mb - 0.00 in0.0 mm 0.00 in0.0 mm
10:47 PM 56.1°F13.4°C 48.0°F8.9°C 74% Calm Calm -- 30.28 in1025.4 mb - 0.00 in0.0 mm 0.00 in0.0 mm
10:52 PM 55.9°F13.3°C 47.8°F8.8°C 74% Calm Calm -- 30.28 in1025.4 mb - 0.00 in0.0 mm 0.00 in0.0 mm
10:57 PM 55.8°F13.2°C 47.7°F8.7°C 74% Calm Calm -- 30.28 in1025.4 mb - 0.00 in0.0 mm 0.00 in0.0 mm
11:02 PM 55.4°F13.0°C 47.3°F8.5°C 74% Calm Calm -- 30.28 in1025.4 mb - 0.00 in0.0 mm 0.00 in0.0 mm
11:07 PM 55.2°F12.9°C 47.1°F8.4°C 74% Calm Calm -- 30.28 in1025.4 mb - 0.00 in0.0 mm 0.00 in0.0 mm
11:12 PM 54.9°F12.7°C 47.1°F8.4°C 75% Calm Calm -- 30.28 in1025.4 mb - 0.00 in0.0 mm 0.00 in0.0 mm
11:17 PM 54.7°F12.6°C 46.9°F8.3°C 75% Calm Calm -- 30.28 in1025.4 mb - 0.00 in0.0 mm 0.00 in0.0 mm
11:22 PM 54.5°F12.5°C 46.8°F8.2°C 75% Calm Calm -- 30.28 in1025.4 mb - 0.00 in0.0 mm 0.00 in0.0 mm
11:27 PM 54.3°F12.4°C 46.6°F8.1°C 75% Calm Calm -- 30.28 in1025.4 mb - 0.00 in0.0 mm 0.00 in0.0 mm
11:32 PM 54.3°F12.4°C 46.9°F8.3°C 76% Calm Calm -- 30.28 in1025.4 mb - 0.00 in0.0 mm 0.00 in0.0 mm
11:37 PM 54.3°F12.4°C 46.9°F8.3°C 76% Calm Calm -- 30.28 in1025.4 mb - 0.00 in0.0 mm 0.00 in0.0 mm
11:42 PM 54.1°F12.3°C 46.8°F8.2°C 76% Calm Calm -- 30.28 in1025.4 mb - 0.00 in0.0 mm 0.00 in0.0 mm
11:47 PM 54.0°F12.2°C 46.6°F8.1°C 76% Calm Calm -- 30.28 in1025.4 mb - 0.00 in0.0 mm 0.00 in0.0 mm
11:52 PM 53.8°F12.1°C 46.8°F8.2°C 77% Calm Calm -- 30.28 in1025.4 mb - 0.00 in0.0 mm 0.00 in0.0 mm
11:57 PM 53.6°F12.0°C 46.6°F8.1°C 77% Calm Calm -- 30.28 in1025.4 mb - 0.00 in0.0 mm 0.00 in0.0 mm